sensor_id;sensor_type;location;lat;lon;timestamp;P1;durP1;ratioP1;P2;durP2;ratioP2
27999;SDS011;15328;50.860;10.562;2023-01-28T00:02:20;9.32;;;5.90;;
27999;SDS011;15328;50.860;10.562;2023-01-28T00:07:21;10.27;;;5.97;;
27999;SDS011;15328;50.860;10.562;2023-01-28T00:12:21;9.52;;;6.55;;
27999;SDS011;15328;50.860;10.562;2023-01-28T00:17:22;13.73;;;7.38;;
27999;SDS011;15328;50.860;10.562;2023-01-28T00:22:23;13.00;;;6.60;;
27999;SDS011;15328;50.860;10.562;2023-01-28T00:27:23;10.63;;;6.55;;
27999;SDS011;15328;50.860;10.562;2023-01-28T00:32:24;11.30;;;6.20;;
27999;SDS011;15328;50.860;10.562;2023-01-28T00:37:24;13.63;;;6.65;;
27999;SDS011;15328;50.860;10.562;2023-01-28T00:42:24;11.10;;;6.63;;
27999;SDS011;15328;50.860;10.562;2023-01-28T00:47:25;11.20;;;6.30;;
27999;SDS011;15328;50.860;10.562;2023-01-28T00:52:25;13.13;;;7.37;;
27999;SDS011;15328;50.860;10.562;2023-01-28T00:57:26;11.27;;;7.07;;
27999;SDS011;15328;50.860;10.562;2023-01-28T01:02:27;12.88;;;6.85;;
27999;SDS011;15328;50.860;10.562;2023-01-28T01:07:28;10.48;;;6.70;;
27999;SDS011;15328;50.860;10.562;2023-01-28T01:12:40;14.27;;;7.45;;
27999;SDS011;15328;50.860;10.562;2023-01-28T01:17:41;13.00;;;7.63;;
27999;SDS011;15328;50.860;10.562;2023-01-28T01:22:43;13.32;;;7.90;;
27999;SDS011;15328;50.860;10.562;2023-01-28T01:27:45;14.18;;;8.52;;
27999;SDS011;15328;50.860;10.562;2023-01-28T01:32:48;13.45;;;7.82;;
27999;SDS011;15328;50.860;10.562;2023-01-28T01:37:48;13.93;;;7.97;;
27999;SDS011;15328;50.860;10.562;2023-01-28T01:42:48;17.00;;;7.57;;
27999;SDS011;15328;50.860;10.562;2023-01-28T01:47:52;15.13;;;8.43;;
27999;SDS011;15328;50.860;10.562;2023-01-28T01:52:59;15.25;;;8.65;;
27999;SDS011;15328;50.860;10.562;2023-01-28T01:58:05;16.75;;;8.55;;
27999;SDS011;15328;50.860;10.562;2023-01-28T02:03:10;14.20;;;7.97;;
27999;SDS011;15328;50.860;10.562;2023-01-28T02:08:10;15.15;;;8.18;;
27999;SDS011;15328;50.860;10.562;2023-01-28T02:13:21;14.23;;;8.57;;
27999;SDS011;15328;50.860;10.562;2023-01-28T02:18:26;16.55;;;8.80;;
27999;SDS011;15328;50.860;10.562;2023-01-28T02:23:37;16.92;;;8.23;;
27999;SDS011;15328;50.860;10.562;2023-01-28T02:39:40;15.50;;;8.75;;
27999;SDS011;15328;50.860;10.562;2023-01-28T02:44:43;16.00;;;8.10;;
27999;SDS011;15328;50.860;10.562;2023-01-28T02:49:51;17.85;;;8.55;;
27999;SDS011;15328;50.860;10.562;2023-01-28T02:54:59;12.63;;;7.32;;
27999;SDS011;15328;50.860;10.562;2023-01-28T03:00:25;15.82;;;8.02;;
27999;SDS011;15328;50.860;10.562;2023-01-28T03:05:28;13.23;;;7.50;;
27999;SDS011;15328;50.860;10.562;2023-01-28T03:15:37;13.23;;;6.88;;
27999;SDS011;15328;50.860;10.562;2023-01-28T03:26:18;16.15;;;7.10;;
27999;SDS011;15328;50.860;10.562;2023-01-28T03:31:40;13.60;;;6.68;;
27999;SDS011;15328;50.860;10.562;2023-01-28T03:36:59;12.93;;;6.93;;
27999;SDS011;15328;50.860;10.562;2023-01-28T03:42:08;16.55;;;7.82;;
27999;SDS011;15328;50.860;10.562;2023-01-28T03:47:11;13.63;;;6.38;;
27999;SDS011;15328;50.860;10.562;2023-01-28T03:52:11;11.27;;;6.38;;
27999;SDS011;15328;50.860;10.562;2023-01-28T03:57:12;15.40;;;7.38;;
27999;SDS011;15328;50.860;10.562;2023-01-28T04:02:12;12.30;;;6.35;;
27999;SDS011;15328;50.860;10.562;2023-01-28T04:07:14;13.10;;;6.38;;
27999;SDS011;15328;50.860;10.562;2023-01-28T04:12:14;12.15;;;6.65;;
27999;SDS011;15328;50.860;10.562;2023-01-28T04:17:15;11.82;;;6.68;;
27999;SDS011;15328;50.860;10.562;2023-01-28T04:22:15;11.97;;;6.63;;
27999;SDS011;15328;50.860;10.562;2023-01-28T04:27:15;10.33;;;6.30;;
27999;SDS011;15328;50.860;10.562;2023-01-28T04:32:16;11.47;;;6.47;;
27999;SDS011;15328;50.860;10.562;2023-01-28T04:37:16;13.27;;;6.60;;
27999;SDS011;15328;50.860;10.562;2023-01-28T04:42:17;12.27;;;6.55;;
27999;SDS011;15328;50.860;10.562;2023-01-28T04:47:17;12.47;;;6.97;;
27999;SDS011;15328;50.860;10.562;2023-01-28T04:52:18;11.93;;;6.35;;
27999;SDS011;15328;50.860;10.562;2023-01-28T04:57:19;11.17;;;6.33;;
27999;SDS011;15328;50.860;10.562;2023-01-28T05:02:19;13.40;;;7.00;;
27999;SDS011;15328;50.860;10.562;2023-01-28T05:07:19;11.23;;;5.85;;
27999;SDS011;15328;50.860;10.562;2023-01-28T05:12:20;12.52;;;6.00;;
27999;SDS011;15328;50.860;10.562;2023-01-28T05:17:21;11.00;;;5.45;;
27999;SDS011;15328;50.860;10.562;2023-01-28T05:22:21;9.83;;;5.60;;
27999;SDS011;15328;50.860;10.562;2023-01-28T05:27:21;10.55;;;5.32;;
27999;SDS011;15328;50.860;10.562;2023-01-28T05:32:22;9.07;;;4.53;;
27999;SDS011;15328;50.860;10.562;2023-01-28T05:37:22;11.13;;;4.32;;
27999;SDS011;15328;50.860;10.562;2023-01-28T05:42:23;7.55;;;4.20;;
27999;SDS011;15328;50.860;10.562;2023-01-28T05:47:23;6.00;;;3.37;;
27999;SDS011;15328;50.860;10.562;2023-01-28T05:52:23;4.87;;;3.30;;
27999;SDS011;15328;50.860;10.562;2023-01-28T05:57:24;5.73;;;2.87;;
27999;SDS011;15328;50.860;10.562;2023-01-28T06:02:24;5.03;;;2.70;;
27999;SDS011;15328;50.860;10.562;2023-01-28T06:07:24;4.93;;;2.78;;
27999;SDS011;15328;50.860;10.562;2023-01-28T06:12:25;5.20;;;2.97;;
27999;SDS011;15328;50.860;10.562;2023-01-28T06:17:25;5.40;;;3.17;;
27999;SDS011;15328;50.860;10.562;2023-01-28T06:22:25;6.80;;;3.60;;
27999;SDS011;15328;50.860;10.562;2023-01-28T06:27:26;9.23;;;3.83;;
27999;SDS011;15328;50.860;10.562;2023-01-28T06:32:26;6.45;;;3.38;;
27999;SDS011;15328;50.860;10.562;2023-01-28T06:37:27;5.85;;;3.20;;
27999;SDS011;15328;50.860;10.562;2023-01-28T06:42:27;5.07;;;3.10;;
27999;SDS011;15328;50.860;10.562;2023-01-28T06:47:28;6.15;;;3.20;;
27999;SDS011;15328;50.860;10.562;2023-01-28T06:52:28;6.10;;;3.20;;
27999;SDS011;15328;50.860;10.562;2023-01-28T06:57:28;5.30;;;3.05;;
27999;SDS011;15328;50.860;10.562;2023-01-28T07:02:29;6.77;;;3.10;;
27999;SDS011;15328;50.860;10.562;2023-01-28T07:07:29;5.20;;;2.70;;
27999;SDS011;15328;50.860;10.562;2023-01-28T07:12:29;8.13;;;3.30;;
27999;SDS011;15328;50.860;10.562;2023-01-28T07:17:30;6.67;;;3.67;;
27999;SDS011;15328;50.860;10.562;2023-01-28T07:22:30;6.97;;;3.83;;
27999;SDS011;15328;50.860;10.562;2023-01-28T07:27:30;6.30;;;3.83;;
27999;SDS011;15328;50.860;10.562;2023-01-28T07:32:31;5.80;;;3.60;;
27999;SDS011;15328;50.860;10.562;2023-01-28T07:37:31;8.03;;;3.70;;
27999;SDS011;15328;50.860;10.562;2023-01-28T07:42:32;6.93;;;3.55;;
27999;SDS011;15328;50.860;10.562;2023-01-28T07:47:32;4.18;;;2.72;;
27999;SDS011;15328;50.860;10.562;2023-01-28T07:52:32;4.40;;;2.60;;
27999;SDS011;15328;50.860;10.562;2023-01-28T08:02:58;5.28;;;3.15;;
27999;SDS011;15328;50.860;10.562;2023-01-28T08:08:00;5.13;;;3.10;;
27999;SDS011;15328;50.860;10.562;2023-01-28T08:13:00;4.95;;;2.67;;
27999;SDS011;15328;50.860;10.562;2023-01-28T08:18:01;4.10;;;2.42;;
27999;SDS011;15328;50.860;10.562;2023-01-28T08:23:15;3.85;;;2.40;;
27999;SDS011;15328;50.860;10.562;2023-01-28T08:28:17;5.65;;;2.65;;
27999;SDS011;15328;50.860;10.562;2023-01-28T08:33:18;5.35;;;2.65;;
27999;SDS011;15328;50.860;10.562;2023-01-28T08:38:19;9.10;;;3.83;;
27999;SDS011;15328;50.860;10.562;2023-01-28T08:43:19;7.47;;;3.78;;
27999;SDS011;15328;50.860;10.562;2023-01-28T08:48:20;5.70;;;3.92;;
27999;SDS011;15328;50.860;10.562;2023-01-28T08:53:20;7.25;;;3.65;;
27999;SDS011;15328;50.860;10.562;2023-01-28T08:58:21;6.82;;;3.50;;
27999;SDS011;15328;50.860;10.562;2023-01-28T09:03:21;5.50;;;3.60;;
27999;SDS011;15328;50.860;10.562;2023-01-28T09:08:22;6.17;;;4.17;;
27999;SDS011;15328;50.860;10.562;2023-01-28T09:13:22;6.93;;;3.97;;
27999;SDS011;15328;50.860;10.562;2023-01-28T09:18:23;6.63;;;4.55;;
27999;SDS011;15328;50.860;10.562;2023-01-28T09:23:23;4.57;;;3.00;;
27999;SDS011;15328;50.860;10.562;2023-01-28T09:28:23;4.43;;;3.22;;
27999;SDS011;15328;50.860;10.562;2023-01-28T09:33:24;6.55;;;4.03;;
27999;SDS011;15328;50.860;10.562;2023-01-28T09:38:24;6.53;;;3.65;;
27999;SDS011;15328;50.860;10.562;2023-01-28T09:43:30;6.50;;;3.83;;
27999;SDS011;15328;50.860;10.562;2023-01-28T09:48:37;4.78;;;3.00;;
27999;SDS011;15328;50.860;10.562;2023-01-28T09:53:44;4.40;;;2.78;;
27999;SDS011;15328;50.860;10.562;2023-01-28T09:58:49;5.18;;;2.40;;
27999;SDS011;15328;50.860;10.562;2023-01-28T10:19:58;5.53;;;2.53;;
27999;SDS011;15328;50.860;10.562;2023-01-28T10:25:06;5.18;;;3.50;;
27999;SDS011;15328;50.860;10.562;2023-01-28T10:30:23;5.03;;;3.28;;
27999;SDS011;15328;50.860;10.562;2023-01-28T10:35:25;7.28;;;4.03;;
27999;SDS011;15328;50.860;10.562;2023-01-28T10:40:26;7.88;;;5.13;;
27999;SDS011;15328;50.860;10.562;2023-01-28T10:50:36;7.10;;;4.70;;
27999;SDS011;15328;50.860;10.562;2023-01-28T10:55:58;6.50;;;4.40;;
27999;SDS011;15328;50.860;10.562;2023-01-28T11:01:00;6.95;;;4.95;;
27999;SDS011;15328;50.860;10.562;2023-01-28T11:06:04;6.90;;;4.45;;
27999;SDS011;15328;50.860;10.562;2023-01-28T11:11:12;8.25;;;5.03;;
27999;SDS011;15328;50.860;10.562;2023-01-28T11:16:15;9.65;;;5.65;;
27999;SDS011;15328;50.860;10.562;2023-01-28T11:21:20;11.07;;;6.25;;
27999;SDS011;15328;50.860;10.562;2023-01-28T11:26:24;11.32;;;6.80;;
27999;SDS011;15328;50.860;10.562;2023-01-28T11:31:27;10.90;;;6.38;;
27999;SDS011;15328;50.860;10.562;2023-01-28T11:36:31;12.13;;;6.93;;
27999;SDS011;15328;50.860;10.562;2023-01-28T11:41:34;12.32;;;7.22;;
27999;SDS011;15328;50.860;10.562;2023-01-28T11:57:03;8.88;;;5.75;;
27999;SDS011;15328;50.860;10.562;2023-01-28T12:12:57;12.57;;;7.05;;
27999;SDS011;15328;50.860;10.562;2023-01-28T12:39:23;6.63;;;4.68;;
27999;SDS011;15328;50.860;10.562;2023-01-28T12:44:43;6.28;;;4.35;;
27999;SDS011;15328;50.860;10.562;2023-01-28T12:49:51;5.57;;;4.50;;
27999;SDS011;15328;50.860;10.562;2023-01-28T12:55:16;7.00;;;4.07;;
27999;SDS011;15328;50.860;10.562;2023-01-28T13:06:29;7.10;;;4.32;;
27999;SDS011;15328;50.860;10.562;2023-01-28T13:11:44;5.75;;;4.10;;
27999;SDS011;15328;50.860;10.562;2023-01-28T13:16:47;5.95;;;4.55;;
27999;SDS011;15328;50.860;10.562;2023-01-28T13:21:47;6.28;;;4.45;;
27999;SDS011;15328;50.860;10.562;2023-01-28T13:26:55;7.57;;;4.13;;
27999;SDS011;15328;50.860;10.562;2023-01-28T13:31:57;6.13;;;4.30;;
27999;SDS011;15328;50.860;10.562;2023-01-28T13:37:00;5.97;;;4.25;;
27999;SDS011;15328;50.860;10.562;2023-01-28T13:47:12;8.50;;;4.57;;
27999;SDS011;15328;50.860;10.562;2023-01-28T13:52:23;6.30;;;4.57;;
27999;SDS011;15328;50.860;10.562;2023-01-28T13:57:45;5.13;;;4.03;;
27999;SDS011;15328;50.860;10.562;2023-01-28T14:08:27;7.75;;;4.80;;
27999;SDS011;15328;50.860;10.562;2023-01-28T14:19:11;9.35;;;5.20;;
27999;SDS011;15328;50.860;10.562;2023-01-28T14:24:14;9.20;;;5.65;;
27999;SDS011;15328;50.860;10.562;2023-01-28T14:34:32;5.38;;;4.30;;
27999;SDS011;15328;50.860;10.562;2023-01-28T14:39:59;8.27;;;5.00;;
27999;SDS011;15328;50.860;10.562;2023-01-28T14:55:58;6.80;;;4.20;;
27999;SDS011;15328;50.860;10.562;2023-01-28T15:01:23;5.05;;;3.78;;
27999;SDS011;15328;50.860;10.562;2023-01-28T15:06:33;5.28;;;3.95;;
27999;SDS011;15328;50.860;10.562;2023-01-28T15:11:38;6.38;;;4.72;;
27999;SDS011;15328;50.860;10.562;2023-01-28T15:21:46;9.35;;;4.30;;
27999;SDS011;15328;50.860;10.562;2023-01-28T15:26:47;5.88;;;4.50;;
27999;SDS011;15328;50.860;10.562;2023-01-28T15:31:47;10.07;;;6.20;;
27999;SDS011;15328;50.860;10.562;2023-01-28T15:36:48;9.23;;;5.72;;
27999;SDS011;15328;50.860;10.562;2023-01-28T15:42:02;43.35;;;23.08;;
27999;SDS011;15328;50.860;10.562;2023-01-28T15:47:27;16.23;;;9.57;;
27999;SDS011;15328;50.860;10.562;2023-01-28T15:57:36;9.63;;;6.75;;
27999;SDS011;15328;50.860;10.562;2023-01-28T16:02:44;10.05;;;6.78;;
27999;SDS011;15328;50.860;10.562;2023-01-28T16:07:49;10.30;;;6.50;;
27999;SDS011;15328;50.860;10.562;2023-01-28T16:18:37;9.80;;;6.07;;
27999;SDS011;15328;50.860;10.562;2023-01-28T16:23:59;9.48;;;6.22;;
27999;SDS011;15328;50.860;10.562;2023-01-28T16:29:05;9.95;;;6.22;;
27999;SDS011;15328;50.860;10.562;2023-01-28T16:34:12;10.45;;;6.25;;
27999;SDS011;15328;50.860;10.562;2023-01-28T16:39:12;7.85;;;5.78;;
27999;SDS011;15328;50.860;10.562;2023-01-28T16:44:13;11.13;;;6.70;;
27999;SDS011;15328;50.860;10.562;2023-01-28T16:49:15;9.95;;;6.32;;
27999;SDS011;15328;50.860;10.562;2023-01-28T16:54:15;17.77;;;10.13;;
27999;SDS011;15328;50.860;10.562;2023-01-28T16:59:15;9.45;;;5.60;;
27999;SDS011;15328;50.860;10.562;2023-01-28T17:04:16;8.53;;;6.43;;
27999;SDS011;15328;50.860;10.562;2023-01-28T17:09:16;7.80;;;5.63;;
27999;SDS011;15328;50.860;10.562;2023-01-28T17:14:16;9.90;;;6.15;;
27999;SDS011;15328;50.860;10.562;2023-01-28T17:19:17;8.00;;;5.72;;
27999;SDS011;15328;50.860;10.562;2023-01-28T17:24:17;8.90;;;5.88;;
27999;SDS011;15328;50.860;10.562;2023-01-28T17:29:17;16.60;;;8.47;;
27999;SDS011;15328;50.860;10.562;2023-01-28T17:34:18;16.80;;;9.93;;
27999;SDS011;15328;50.860;10.562;2023-01-28T17:39:18;11.10;;;7.10;;
27999;SDS011;15328;50.860;10.562;2023-01-28T17:44:19;9.43;;;6.80;;
27999;SDS011;15328;50.860;10.562;2023-01-28T17:49:19;10.05;;;6.90;;
27999;SDS011;15328;50.860;10.562;2023-01-28T17:54:19;11.13;;;7.22;;
27999;SDS011;15328;50.860;10.562;2023-01-28T17:59:20;8.35;;;6.25;;
27999;SDS011;15328;50.860;10.562;2023-01-28T18:04:20;10.77;;;6.18;;
27999;SDS011;15328;50.860;10.562;2023-01-28T18:09:20;8.85;;;6.03;;
27999;SDS011;15328;50.860;10.562;2023-01-28T18:14:21;10.20;;;6.15;;
27999;SDS011;15328;50.860;10.562;2023-01-28T18:19:21;9.10;;;6.13;;
27999;SDS011;15328;50.860;10.562;2023-01-28T18:24:22;10.25;;;6.75;;
27999;SDS011;15328;50.860;10.562;2023-01-28T18:29:25;9.27;;;6.50;;
27999;SDS011;15328;50.860;10.562;2023-01-28T18:34:26;8.90;;;6.40;;
27999;SDS011;15328;50.860;10.562;2023-01-28T18:39:28;11.75;;;7.00;;
27999;SDS011;15328;50.860;10.562;2023-01-28T18:44:30;10.93;;;6.45;;
27999;SDS011;15328;50.860;10.562;2023-01-28T18:49:30;10.45;;;6.78;;
27999;SDS011;15328;50.860;10.562;2023-01-28T18:54:31;11.20;;;7.03;;
27999;SDS011;15328;50.860;10.562;2023-01-28T18:59:31;9.20;;;6.32;;
27999;SDS011;15328;50.860;10.562;2023-01-28T19:04:31;14.40;;;7.13;;
27999;SDS011;15328;50.860;10.562;2023-01-28T19:09:32;13.40;;;7.95;;
27999;SDS011;15328;50.860;10.562;2023-01-28T19:14:32;19.08;;;10.95;;
27999;SDS011;15328;50.860;10.562;2023-01-28T19:19:32;13.03;;;8.13;;
27999;SDS011;15328;50.860;10.562;2023-01-28T19:24:33;16.33;;;9.48;;
27999;SDS011;15328;50.860;10.562;2023-01-28T19:29:34;13.23;;;7.57;;
27999;SDS011;15328;50.860;10.562;2023-01-28T19:34:34;13.32;;;8.27;;
27999;SDS011;15328;50.860;10.562;2023-01-28T19:39:35;13.40;;;8.80;;
27999;SDS011;15328;50.860;10.562;2023-01-28T19:44:35;12.88;;;7.45;;
27999;SDS011;15328;50.860;10.562;2023-01-28T19:49:36;12.18;;;7.80;;
27999;SDS011;15328;50.860;10.562;2023-01-28T19:54:36;10.82;;;6.55;;
27999;SDS011;15328;50.860;10.562;2023-01-28T19:59:36;11.00;;;6.65;;
27999;SDS011;15328;50.860;10.562;2023-01-28T20:04:37;16.48;;;8.85;;
27999;SDS011;15328;50.860;10.562;2023-01-28T20:09:37;12.35;;;7.60;;
27999;SDS011;15328;50.860;10.562;2023-01-28T20:14:37;13.70;;;6.95;;
27999;SDS011;15328;50.860;10.562;2023-01-28T20:19:38;12.25;;;7.63;;
27999;SDS011;15328;50.860;10.562;2023-01-28T20:24:38;12.82;;;7.75;;
27999;SDS011;15328;50.860;10.562;2023-01-28T20:29:38;12.37;;;7.07;;
27999;SDS011;15328;50.860;10.562;2023-01-28T20:34:39;10.30;;;6.55;;
27999;SDS011;15328;50.860;10.562;2023-01-28T20:39:39;12.07;;;6.57;;
27999;SDS011;15328;50.860;10.562;2023-01-28T20:44:39;11.93;;;7.27;;
27999;SDS011;15328;50.860;10.562;2023-01-28T20:49:40;11.25;;;7.00;;
27999;SDS011;15328;50.860;10.562;2023-01-28T20:54:40;13.52;;;7.68;;
27999;SDS011;15328;50.860;10.562;2023-01-28T20:59:40;12.02;;;7.30;;
27999;SDS011;15328;50.860;10.562;2023-01-28T21:04:41;10.30;;;6.03;;
27999;SDS011;15328;50.860;10.562;2023-01-28T21:09:41;11.53;;;6.27;;
27999;SDS011;15328;50.860;10.562;2023-01-28T21:14:41;12.17;;;7.20;;
27999;SDS011;15328;50.860;10.562;2023-01-28T21:19:42;11.45;;;7.05;;
27999;SDS011;15328;50.860;10.562;2023-01-28T21:24:42;10.80;;;6.87;;
27999;SDS011;15328;50.860;10.562;2023-01-28T21:29:43;10.45;;;6.05;;
27999;SDS011;15328;50.860;10.562;2023-01-28T21:34:44;10.18;;;5.75;;
27999;SDS011;15328;50.860;10.562;2023-01-28T21:39:44;10.00;;;6.15;;
27999;SDS011;15328;50.860;10.562;2023-01-28T21:44:44;10.50;;;6.03;;
27999;SDS011;15328;50.860;10.562;2023-01-28T21:49:46;12.35;;;6.72;;
27999;SDS011;15328;50.860;10.562;2023-01-28T21:54:46;11.25;;;6.40;;
27999;SDS011;15328;50.860;10.562;2023-01-28T21:59:47;8.40;;;5.70;;
27999;SDS011;15328;50.860;10.562;2023-01-28T22:04:47;9.95;;;6.22;;
27999;SDS011;15328;50.860;10.562;2023-01-28T22:09:50;10.48;;;6.15;;
27999;SDS011;15328;50.860;10.562;2023-01-28T22:14:51;8.35;;;4.88;;
27999;SDS011;15328;50.860;10.562;2023-01-28T22:19:51;9.95;;;5.38;;
27999;SDS011;15328;50.860;10.562;2023-01-28T22:24:51;24.35;;;10.38;;
27999;SDS011;15328;50.860;10.562;2023-01-28T22:29:52;9.75;;;5.07;;
27999;SDS011;15328;50.860;10.562;2023-01-28T22:34:52;6.10;;;4.68;;
27999;SDS011;15328;50.860;10.562;2023-01-28T22:39:53;8.07;;;4.50;;
27999;SDS011;15328;50.860;10.562;2023-01-28T22:44:53;6.30;;;4.20;;
27999;SDS011;15328;50.860;10.562;2023-01-28T22:49:53;7.40;;;4.13;;
27999;SDS011;15328;50.860;10.562;2023-01-28T22:54:54;6.93;;;4.50;;
27999;SDS011;15328;50.860;10.562;2023-01-28T22:59:54;6.23;;;4.57;;
27999;SDS011;15328;50.860;10.562;2023-01-28T23:04:54;7.53;;;4.53;;
27999;SDS011;15328;50.860;10.562;2023-01-28T23:09:55;6.37;;;4.07;;
27999;SDS011;15328;50.860;10.562;2023-01-28T23:14:55;6.50;;;4.25;;
27999;SDS011;15328;50.860;10.562;2023-01-28T23:20:14;6.97;;;4.07;;
27999;SDS011;15328;50.860;10.562;2023-01-28T23:25:35;6.57;;;4.22;;
27999;SDS011;15328;50.860;10.562;2023-01-28T23:30:35;9.90;;;5.57;;
27999;SDS011;15328;50.860;10.562;2023-01-28T23:35:35;14.82;;;7.45;;
27999;SDS011;15328;50.860;10.562;2023-01-28T23:40:36;13.63;;;7.57;;
27999;SDS011;15328;50.860;10.562;2023-01-28T23:45:36;11.38;;;5.75;;
27999;SDS011;15328;50.860;10.562;2023-01-28T23:50:36;7.37;;;3.83;;
27999;SDS011;15328;50.860;10.562;2023-01-28T23:55:37;5.67;;;3.93;;
